Time;durP1;ratioP1;P1;durP2;ratioP2;P2;SDS_P1;SDS_P2;PMS_P1;PMS_P2;Temp;Humidity;BMP_temperature;BMP_pressure;BME280_temperature;BME280_humidity;BME280_pressure;Samples;Min_cycle;Max_cycle;Signal;HPM_P1;HPM_P2
2023/08/04 00:02:07;;;;;;;7.68;2.22;;;;;;;15.46;100.00;100755.06;10478358;28;20036;-66
2023/08/04 00:07:08;;;;;;;8.65;2.65;;;;;;;15.46;100.00;100759.75;10473662;28;20047;-64
2023/08/04 00:12:10;;;;;;;8.80;1.85;;;;;;;15.39;100.00;100760.09;10490956;28;20041;-66
2023/08/04 00:17:10;;;;;;;9.70;2.20;;;;;;;15.45;100.00;100774.75;10476645;28;20048;-66
2023/08/04 00:22:11;;;;;;;9.68;3.15;;;;;;;15.40;100.00;100777.56;10463184;28;20033;-66
2023/08/04 00:27:11;;;;;;;7.97;2.78;;;;;;;15.40;100.00;100781.19;10478066;28;20044;-66
2023/08/04 00:32:12;;;;;;;7.00;3.03;;;;;;;15.40;100.00;100778.41;10467853;28;20037;-66
2023/08/04 00:37:12;;;;;;;5.78;3.10;;;;;;;15.41;100.00;100780.06;10474369;28;20508;-66
2023/08/04 00:42:13;;;;;;;10.10;2.97;;;;;;;15.42;100.00;100783.66;10425423;28;20107;-66
2023/08/04 00:47:13;;;;;;;9.38;2.63;;;;;;;15.38;100.00;100790.88;10471774;28;20037;-66
2023/08/04 00:52:14;;;;;;;9.48;2.72;;;;;;;15.30;100.00;100784.03;10477418;28;20044;-66
2023/08/04 00:57:14;;;;;;;5.38;2.15;;;;;;;15.26;100.00;100788.50;10467699;28;20055;-67
2023/08/04 01:02:15;;;;;;;6.13;1.90;;;;;;;15.32;100.00;100798.44;10480075;28;20048;-66
2023/08/04 01:07:23;;;;;;;12.48;2.53;;;;;;;15.20;100.00;100784.09;10503793;27;20040;-66
2023/08/04 01:12:44;;;;;;;10.40;3.15;;;;;;;15.23;100.00;100800.16;10445477;28;20517;-66
2023/08/04 01:17:44;;;;;;;6.45;2.13;;;;;;;15.09;100.00;100800.81;10504929;28;20096;-66
2023/08/04 01:22:45;;;;;;;4.38;2.00;;;;;;;14.91;100.00;100790.38;10491022;28;20099;-66
2023/08/04 01:27:50;;;;;;;8.52;2.60;;;;;;;14.86;100.00;100802.31;10464365;28;20033;-66
2023/08/04 01:32:51;;;;;;;5.97;2.08;;;;;;;14.71;100.00;100799.59;10476756;28;20109;-66
2023/08/04 01:37:51;;;;;;;6.32;2.55;;;;;;;14.56;100.00;100799.69;10478576;28;20083;-66
2023/08/04 01:42:52;;;;;;;9.40;2.38;;;;;;;14.45;100.00;100798.84;10467183;28;20049;-66
2023/08/04 01:47:52;;;;;;;7.82;3.25;;;;;;;14.31;100.00;100791.13;10483675;28;20033;-66
2023/08/04 01:52:54;;;;;;;15.23;3.33;;;;;;;14.23;100.00;100800.00;10479533;28;20032;-66
2023/08/04 01:57:54;;;;;;;4.25;2.60;;;;;;;14.13;100.00;100795.31;10485767;28;20083;-66
2023/08/04 02:02:55;;;;;;;4.43;2.38;;;;;;;14.08;100.00;100808.38;10470940;28;20048;-67
2023/08/04 02:07:55;;;;;;;3.97;1.95;;;;;;;14.11;100.00;100805.84;10466961;28;20041;-66
2023/08/04 02:12:56;;;;;;;6.47;2.42;;;;;;;14.15;100.00;100811.66;10416718;28;20044;-65
2023/08/04 02:17:56;;;;;;;6.53;2.38;;;;;;;14.12;100.00;100813.06;10403001;28;20038;-67
2023/08/04 02:22:57;;;;;;;5.78;2.30;;;;;;;14.15;100.00;100814.44;10417480;28;20048;-66
2023/08/04 02:27:57;;;;;;;7.10;2.72;;;;;;;14.21;100.00;100807.78;10419769;28;20049;-66
2023/08/04 02:32:58;;;;;;;11.20;2.60;;;;;;;14.27;100.00;100805.81;10460694;28;20404;-66
2023/08/04 02:37:58;;;;;;;5.88;1.95;;;;;;;14.35;100.00;100813.56;10477430;28;20033;-66
2023/08/04 02:42:59;;;;;;;9.43;1.67;;;;;;;14.38;100.00;100817.69;10468369;28;20098;-66
2023/08/04 02:47:59;;;;;;;5.82;2.10;;;;;;;14.31;100.00;100818.81;10478520;28;20036;-65
2023/08/04 02:53:00;;;;;;;6.20;2.05;;;;;;;14.28;100.00;100830.47;10460077;28;20041;-64
2023/08/04 02:58:02;;;;;;;5.18;2.15;;;;;;;14.26;100.00;100832.69;10481424;28;20063;-66
2023/08/04 03:03:02;;;;;;;5.97;2.20;;;;;;;14.31;100.00;100835.44;10483004;28;20040;-66
2023/08/04 03:08:03;;;;;;;6.78;2.10;;;;;;;14.38;100.00;100845.41;10495807;28;20110;-66
2023/08/04 03:13:03;;;;;;;5.75;1.85;;;;;;;14.41;100.00;100848.44;10473016;28;20041;-66
2023/08/04 03:18:05;;;;;;;3.35;1.67;;;;;;;14.48;100.00;100853.69;10456899;28;20105;-66
2023/08/04 03:23:06;;;;;;;8.57;2.10;;;;;;;14.50;100.00;100851.47;10501968;28;20041;-65
2023/08/04 03:28:06;;;;;;;6.07;1.77;;;;;;;14.50;100.00;100860.59;10479428;28;20044;-65
2023/08/04 03:33:07;;;;;;;9.23;2.15;;;;;;;14.46;100.00;100864.22;10472359;28;20037;-66
2023/08/04 03:38:07;;;;;;;5.03;2.10;;;;;;;14.45;100.00;100876.38;10475011;28;20047;-66
2023/08/04 03:43:08;;;;;;;5.35;2.00;;;;;;;14.37;100.00;100865.91;10468205;28;20095;-66
2023/08/04 03:48:08;;;;;;;4.50;2.25;;;;;;;14.27;100.00;100870.34;10470857;28;20039;-66
2023/08/04 03:53:09;;;;;;;5.03;1.75;;;;;;;14.19;100.00;100875.63;10476772;28;20045;-67
2023/08/04 03:58:09;;;;;;;6.53;2.15;;;;;;;14.19;100.00;100878.38;10473411;28;20041;-65
2023/08/04 04:03:10;;;;;;;9.82;1.85;;;;;;;14.16;100.00;100888.09;10461064;28;20067;-66
2023/08/04 04:08:10;;;;;;;4.25;2.03;;;;;;;14.15;100.00;100886.41;10473986;28;20084;-66
2023/08/04 04:13:11;;;;;;;11.95;2.33;;;;;;;14.23;100.00;100894.16;10477602;28;20477;-66
2023/08/04 04:18:11;;;;;;;7.13;2.25;;;;;;;14.31;100.00;100893.59;10469925;28;20067;-66
2023/08/04 04:23:12;;;;;;;8.80;2.60;;;;;;;14.33;100.00;100912.72;10482925;28;20036;-65
2023/08/04 04:28:12;;;;;;;12.48;2.95;;;;;;;14.32;100.00;100914.66;10488151;28;20408;-66
2023/08/04 04:33:13;;;;;;;6.38;2.00;;;;;;;14.39;100.00;100917.13;10503932;28;20052;-65
2023/08/04 04:38:13;;;;;;;4.95;1.70;;;;;;;14.49;100.00;100924.59;10485776;28;20045;-66
2023/08/04 04:43:14;;;;;;;5.95;2.50;;;;;;;14.61;100.00;100932.63;10466840;28;20037;-66
2023/08/04 04:48:14;;;;;;;5.85;1.80;;;;;;;14.59;100.00;100921.81;10482261;28;20033;-66
2023/08/04 04:53:14;;;;;;;5.05;1.65;;;;;;;14.75;100.00;100949.53;10465912;28;20455;-65
2023/08/04 04:58:15;;;;;;;4.03;1.67;;;;;;;14.83;100.00;100952.53;10473970;28;20761;-67
2023/08/04 05:03:15;;;;;;;4.25;1.60;;;;;;;14.87;100.00;100961.13;10464486;28;20054;-66
2023/08/04 05:08:16;;;;;;;5.28;1.40;;;;;;;14.83;100.00;100968.34;10416713;28;20101;-66
2023/08/04 05:13:16;;;;;;;2.45;1.20;;;;;;;14.70;100.00;100981.69;10410129;28;20045;-67
2023/08/04 05:18:17;;;;;;;2.53;1.20;;;;;;;14.60;100.00;100978.09;10418509;28;20053;-66
2023/08/04 05:23:18;;;;;;;1.60;1.25;;;;;;;14.57;100.00;100976.69;10424203;28;20056;-65
2023/08/04 05:28:21;;;;;;;3.70;1.23;;;;;;;14.57;100.00;100982.22;10382895;28;20045;-66
2023/08/04 05:33:22;;;;;;;2.55;1.10;;;;;;;14.61;100.00;100983.34;10454099;28;20221;-65
2023/08/04 05:38:23;;;;;;;5.47;1.75;;;;;;;14.70;100.00;100984.44;10458696;28;20033;-66
2023/08/04 05:43:23;;;;;;;5.57;2.53;;;;;;;14.77;100.00;100998.00;10465876;28;20041;-66
2023/08/04 05:48:24;;;;;;;6.35;1.30;;;;;;;14.89;100.00;101001.31;10470187;28;20067;-66
2023/08/04 05:53:25;;;;;;;2.35;1.20;;;;;;;15.08;100.00;101004.31;10472812;28;20052;-66
2023/08/04 05:58:25;;;;;;;2.97;1.52;;;;;;;15.16;100.00;101019.56;10501433;28;20048;-66
2023/08/04 06:03:26;;;;;;;3.33;1.20;;;;;;;15.28;100.00;101027.56;10500587;28;21494;-66
2023/08/04 06:08:27;;;;;;;5.13;1.05;;;;;;;15.51;100.00;101028.88;10502580;28;20516;-65
2023/08/04 06:13:27;;;;;;;2.13;1.55;;;;;;;15.69;100.00;101035.75;10500238;28;20123;-66
2023/08/04 06:18:28;;;;;;;2.13;1.20;;;;;;;15.84;100.00;101032.91;10480374;28;20455;-66
2023/08/04 06:23:28;;;;;;;2.40;1.30;;;;;;;16.08;100.00;101038.59;10483395;28;20036;-65
2023/08/04 06:28:29;;;;;;;2.20;1.23;;;;;;;16.19;100.00;101044.91;10476335;28;20041;-66
2023/08/04 06:33:29;;;;;;;3.42;1.10;;;;;;;16.18;100.00;101048.78;10484346;28;20044;-66
2023/08/04 06:38:30;;;;;;;3.47;1.23;;;;;;;16.26;100.00;101050.97;10476285;28;20052;-66
2023/08/04 06:43:30;;;;;;;4.53;1.48;;;;;;;16.43;100.00;101055.28;10465896;28;20033;-66
2023/08/04 06:48:30;;;;;;;2.97;1.23;;;;;;;16.57;100.00;101059.06;10458253;28;20404;-65
2023/08/04 06:53:31;;;;;;;3.95;1.25;;;;;;;16.76;100.00;101064.75;10458251;28;20037;-66
2023/08/04 06:58:31;;;;;;;1.35;1.02;;;;;;;16.89;100.00;101074.44;10463417;28;20049;-66
2023/08/04 07:03:32;;;;;;;2.90;1.45;;;;;;;16.96;100.00;101079.66;10459787;28;20033;-66
2023/08/04 07:08:33;;;;;;;3.45;1.10;;;;;;;16.97;100.00;101084.91;10465891;28;20036;-66
2023/08/04 07:13:33;;;;;;;2.50;1.48;;;;;;;17.05;100.00;101094.56;10464447;28;21477;-65
2023/08/04 07:18:34;;;;;;;4.93;1.23;;;;;;;17.08;100.00;101092.03;10478743;28;20150;-66
2023/08/04 07:23:35;;;;;;;4.18;1.77;;;;;;;17.23;100.00;101093.00;10481274;28;20060;-65
2023/08/04 07:28:35;;;;;;;3.55;1.23;;;;;;;17.42;100.00;101096.69;10477501;28;20087;-66
2023/08/04 07:33:36;;;;;;;3.97;1.33;;;;;;;17.45;100.00;101104.47;10479748;28;20036;-66
2023/08/04 07:38:37;;;;;;;3.72;1.40;;;;;;;17.55;100.00;101093.22;10478008;28;20036;-66
2023/08/04 07:43:37;;;;;;;7.55;2.47;;;;;;;17.77;100.00;101100.19;10474043;28;20040;-65
2023/08/04 07:48:37;;;;;;;2.60;1.35;;;;;;;17.92;100.00;101102.81;10483112;28;20051;-66
2023/08/04 07:53:38;;;;;;;4.93;1.30;;;;;;;18.14;100.00;101104.19;10474938;28;20032;-66
2023/08/04 07:58:38;;;;;;;2.83;1.20;;;;;;;18.07;100.00;101103.75;10469144;28;20029;-66
2023/08/04 08:03:39;;;;;;;3.20;1.40;;;;;;;18.17;100.00;101109.19;10462967;28;20112;-65
2023/08/04 08:08:40;;;;;;;3.80;1.00;;;;;;;18.41;100.00;101097.94;10473458;28;20033;-65
2023/08/04 08:13:40;;;;;;;4.15;0.98;;;;;;;18.64;100.00;101098.16;10478382;28;20070;-66
2023/08/04 08:18:41;;;;;;;2.83;1.20;;;;;;;18.61;100.00;101102.38;10478230;28;20056;-66
2023/08/04 08:23:41;;;;;;;3.22;1.00;;;;;;;18.90;100.00;101102.22;10462310;28;20058;-65
2023/08/04 08:28:42;;;;;;;4.25;1.77;;;;;;;19.14;100.00;101098.44;10474719;28;20087;-66
2023/08/04 08:33:42;;;;;;;6.10;1.60;;;;;;;19.18;100.00;101107.03;10478686;28;20047;-66
2023/08/04 08:38:43;;;;;;;3.83;1.15;;;;;;;19.42;100.00;101110.50;10458230;28;20114;-66
2023/08/04 08:43:44;;;;;;;4.13;1.30;;;;;;;19.47;100.00;101129.09;10479402;28;20036;-66
2023/08/04 08:48:44;;;;;;;5.68;1.60;;;;;;;19.22;100.00;101130.41;10474908;28;20037;-66
2023/08/04 08:53:46;;;;;;;7.50;1.30;;;;;;;18.72;100.00;101142.09;10471635;28;20540;-66
2023/08/04 08:58:47;;;;;;;6.05;1.10;;;;;;;18.41;100.00;101141.72;10443326;28;20056;-66
2023/08/04 09:03:47;;;;;;;3.00;1.00;;;;;;;18.44;100.00;101141.09;10424331;28;20038;-65
2023/08/04 09:08:48;;;;;;;3.83;1.63;;;;;;;18.72;100.00;101148.50;10406268;28;20045;-66
2023/08/04 09:13:49;;;;;;;2.63;0.77;;;;;;;19.02;100.00;101135.22;10405026;28;20057;-66
2023/08/04 09:18:49;;;;;;;2.92;0.70;;;;;;;19.07;100.00;101149.06;10406775;28;20547;-66
2023/08/04 09:23:51;;;;;;;3.53;1.15;;;;;;;19.04;100.00;101155.28;10403251;28;20405;-66
2023/08/04 09:29:04;;;;;;;1.63;0.60;;;;;;;18.49;100.00;101166.13;10404701;28;20037;-67
2023/08/04 09:34:05;;;;;;;1.52;0.50;;;;;;;18.66;100.00;101174.78;10413089;28;20037;-67
2023/08/04 09:39:06;;;;;;;1.77;0.60;;;;;;;18.35;100.00;101178.06;10410668;28;20060;-67
2023/08/04 09:44:06;;;;;;;1.35;0.70;;;;;;;18.25;100.00;101183.75;10462508;28;20043;-67
2023/08/04 09:49:07;;;;;;;4.97;1.30;;;;;;;18.47;100.00;101185.13;10462604;28;20377;-66
2023/08/04 09:54:07;;;;;;;2.08;0.90;;;;;;;18.64;100.00;101174.28;10458894;28;20043;-66
2023/08/04 09:59:08;;;;;;;5.15;0.98;;;;;;;19.12;100.00;101168.53;10454857;28;20124;-66
2023/08/04 10:04:08;;;;;;;3.88;0.90;;;;;;;19.04;100.00;101160.00;10453431;28;20033;-67
2023/08/04 10:09:09;;;;;;;2.53;0.90;;;;;;;19.68;100.00;101163.91;10435919;28;20072;-66
2023/08/04 10:14:09;;;;;;;6.28;1.05;;;;;;;20.21;100.00;101137.41;10437148;28;20519;-65
2023/08/04 10:19:10;;;;;;;8.73;1.48;;;;;;;20.72;100.00;101146.63;10453419;28;20397;-66
2023/08/04 10:24:11;;;;;;;3.30;0.73;;;;;;;20.26;100.00;101150.47;10433188;28;20076;-66
2023/08/04 10:29:12;;;;;;;6.50;1.20;;;;;;;19.42;100.00;101171.09;10458230;28;20110;-66
2023/08/04 10:34:28;;;;;;;4.32;1.10;;;;;;;18.96;100.00;101164.34;10452890;28;20111;-68
2023/08/04 10:39:34;;;;;;;3.72;0.70;;;;;;;18.99;100.00;101169.31;10460214;28;20450;-65
2023/08/04 10:45:04;;;;;;;3.55;1.08;;;;;;;19.06;100.00;101169.75;10451868;28;20060;-66
2023/08/04 10:50:06;;;;;;;6.65;1.30;;;;;;;19.87;100.00;101163.00;10453690;28;20040;-66
2023/08/04 10:55:08;;;;;;;4.63;0.90;;;;;;;20.86;100.00;101152.19;10455141;28;20108;-66
2023/08/04 11:00:10;;;;;;;5.10;0.85;;;;;;;21.18;100.00;101131.47;10455192;28;20124;-67
2023/08/04 11:05:11;;;;;;;3.05;0.60;;;;;;;21.02;100.00;101153.44;10438682;28;20041;-67
2023/08/04 11:10:11;;;;;;;2.55;0.70;;;;;;;20.33;100.00;101157.25;10458293;28;20048;-68
2023/08/04 11:15:12;;;;;;;1.75;0.85;;;;;;;20.63;100.00;101168.09;10458287;28;20516;-68
2023/08/04 11:20:12;;;;;;;3.45;0.70;;;;;;;20.93;100.00;101170.16;10448508;28;20050;-68
2023/08/04 11:25:13;;;;;;;1.88;0.57;;;;;;;20.52;100.00;101187.06;10449840;28;20041;-67
2023/08/04 11:30:15;;;;;;;3.20;0.80;;;;;;;20.41;100.00;101174.47;10438677;28;20052;-68
2023/08/04 11:35:16;;;;;;;2.00;0.55;;;;;;;20.16;100.00;101187.84;10442547;28;20038;-67
2023/08/04 11:40:23;;;;;;;3.85;0.68;;;;;;;20.54;100.00;101195.97;10437799;28;20044;-66
2023/08/04 11:45:24;;;;;;;1.98;0.55;;;;;;;21.56;100.00;101167.50;10440836;28;20049;-67
2023/08/04 11:50:24;;;;;;;1.58;0.50;;;;;;;20.77;100.00;101177.28;10456925;28;20037;-67
2023/08/04 11:55:25;;;;;;;1.98;0.68;;;;;;;21.41;100.00;101190.25;10459776;28;20449;-68
2023/08/04 12:00:33;;;;;;;2.90;0.45;;;;;;;21.55;100.00;101182.63;10459808;28;20045;-67
2023/08/04 12:05:37;;;;;;;4.00;0.57;;;;;;;21.51;100.00;101193.66;10421360;28;20044;-66
2023/08/04 12:10:37;;;;;;;0.80;0.50;;;;;;;21.49;100.00;101193.13;10456187;28;20049;-66
2023/08/04 12:15:53;;;;;;;4.45;0.70;;;;;;;21.50;100.00;101199.59;10446089;28;20433;-67
2023/08/04 12:20:54;;;;;;;3.15;0.95;;;;;;;22.21;100.00;101202.38;10465593;28;20223;-68
2023/08/04 12:25:54;;;;;;;1.67;1.17;;;;;;;23.31;100.00;101194.72;10474880;28;20408;-67
2023/08/04 12:30:54;;;;;;;3.72;0.65;;;;;;;22.71;100.00;101204.78;10476183;28;20064;-68
2023/08/04 12:35:55;;;;;;;2.45;0.82;;;;;;;22.63;100.00;101202.81;10424933;28;20041;-68
2023/08/04 12:40:55;;;;;;;2.05;0.50;;;;;;;22.34;100.00;101192.19;10416090;28;20052;-68
2023/08/04 12:45:56;;;;;;;3.67;0.70;;;;;;;22.21;100.00;101213.59;10404307;28;20041;-66
2023/08/04 12:50:56;;;;;;;5.30;1.02;;;;;;;21.92;100.00;101239.38;10422478;28;20040;-67
2023/08/04 12:55:57;;;;;;;6.95;1.08;;;;;;;21.52;100.00;101237.34;10420416;28;20044;-68
2023/08/04 13:00:57;;;;;;;5.40;0.90;;;;;;;21.32;100.00;101240.63;10415033;28;20037;-67
2023/08/04 13:05:58;;;;;;;3.75;0.70;;;;;;;21.72;100.00;101246.34;10421386;28;20056;-65
2023/08/04 13:10:59;;;;;;;3.40;0.70;;;;;;;22.00;100.00;101240.56;10460977;28;20097;-67
2023/08/04 13:16:00;;;;;;;3.35;0.95;;;;;;;23.37;100.00;101241.16;10485626;28;20357;-67
2023/08/04 13:21:03;;;;;;;3.88;1.20;;;;;;;24.51;100.00;101233.19;10468486;28;20048;-68
2023/08/04 13:26:04;;;;;;;4.60;0.80;;;;;;;24.46;100.00;101229.72;10456875;28;20047;-67
2023/08/04 13:31:05;;;;;;;8.25;1.48;;;;;;;24.12;100.00;101234.34;10461168;28;20044;-67
2023/08/04 13:36:06;;;;;;;2.08;0.60;;;;;;;23.23;100.00;101245.31;10449015;28;20034;-68
2023/08/04 13:41:06;;;;;;;1.80;0.70;;;;;;;22.64;100.00;101260.59;10477568;28;20075;-68
2023/08/04 13:46:07;;;;;;;1.90;0.80;;;;;;;22.83;100.00;101281.94;10477910;28;20037;-67
2023/08/04 13:51:07;;;;;;;1.98;0.95;;;;;;;22.89;100.00;101273.00;10467280;28;20124;-67
2023/08/04 13:56:08;;;;;;;2.00;1.20;;;;;;;23.00;100.00;101273.50;10419383;28;20034;-66
2023/08/04 14:01:08;;;;;;;1.55;0.63;;;;;;;22.73;100.00;101275.47;10417280;28;20033;-66
2023/08/04 14:06:09;;;;;;;3.20;0.68;;;;;;;23.12;100.00;101281.31;10398110;28;20061;-66
2023/08/04 14:11:09;;;;;;;2.45;0.80;;;;;;;22.83;100.00;101290.34;10456248;28;20071;-66
2023/08/04 14:16:11;;;;;;;4.43;1.27;;;;;;;22.36;100.00;101251.59;10459977;28;20043;-67
2023/08/04 14:21:11;;;;;;;5.10;1.05;;;;;;;22.16;100.00;101303.47;10457872;28;20053;-67
2023/08/04 14:26:12;;;;;;;6.70;0.98;;;;;;;21.89;100.00;101310.91;10457405;28;20037;-66
2023/08/04 14:31:12;;;;;;;1.90;0.60;;;;;;;21.85;100.00;101317.47;10459660;28;20063;-66
2023/08/04 14:36:13;;;;;;;3.03;0.77;;;;;;;22.60;100.00;101310.09;10451436;28;20048;-67
2023/08/04 14:41:13;;;;;;;3.50;0.60;;;;;;;23.26;100.00;101309.25;10458493;28;20094;-67
2023/08/04 14:46:14;;;;;;;3.35;0.70;;;;;;;22.77;100.00;101314.94;10456524;28;20087;-68
2023/08/04 14:51:14;;;;;;;2.10;0.70;;;;;;;22.28;100.00;101320.56;10458179;28;20045;-66
2023/08/04 14:56:14;;;;;;;3.38;1.00;;;;;;;22.11;100.00;101326.84;10458702;28;20045;-67
2023/08/04 15:01:15;;;;;;;2.67;1.00;;;;;;;21.02;100.00;101337.34;10436948;28;20167;-67
2023/08/04 15:06:17;;;;;;;3.15;1.00;;;;;;;20.73;100.00;101350.56;10446979;28;20136;-66
2023/08/04 15:11:17;;;;;;;3.67;0.95;;;;;;;21.14;100.00;101343.25;10456218;28;20059;-66
2023/08/04 15:16:18;;;;;;;0.82;0.63;;;;;;;21.64;100.00;101345.19;10456201;28;20070;-67
2023/08/04 15:21:18;;;;;;;1.10;0.80;;;;;;;22.51;100.00;101343.75;10456449;28;20041;-65
2023/08/04 15:26:18;;;;;;;2.65;0.73;;;;;;;22.42;100.00;101356.09;10439138;28;20033;-66
2023/08/04 15:31:19;;;;;;;3.28;1.33;;;;;;;22.21;100.00;101341.75;10456299;28;20033;-67
2023/08/04 15:36:19;;;;;;;1.13;0.73;;;;;;;23.19;100.00;101325.78;10431895;28;20030;-67
2023/08/04 15:41:20;;;;;;;1.88;0.63;;;;;;;22.90;100.00;101341.22;10453474;28;20045;-66
2023/08/04 15:46:21;;;;;;;1.95;0.90;;;;;;;22.45;100.00;101344.19;10447028;28;20273;-67
2023/08/04 15:51:21;;;;;;;3.63;1.00;;;;;;;23.04;100.00;101347.56;10453397;28;20041;-67
2023/08/04 15:56:22;;;;;;;4.55;0.90;;;;;;;24.28;100.00;101328.28;10456517;28;20037;-67
2023/08/04 16:01:23;;;;;;;4.88;1.05;;;;;;;23.05;100.00;101352.03;10454885;28;20087;-66
2023/08/04 16:06:23;;;;;;;3.42;1.05;;;;;;;21.69;100.00;101365.50;10452326;28;20041;-68
2023/08/04 16:11:24;;;;;;;2.45;1.00;;;;;;;21.02;100.00;101366.16;10442048;28;20064;-68
2023/08/04 16:16:24;;;;;;;1.20;0.90;;;;;;;21.02;100.00;101374.56;10460891;28;20037;-66
2023/08/04 16:21:26;;;;;;;4.20;1.13;;;;;;;20.98;100.00;101375.50;10458659;28;20067;-67
2023/08/04 16:26:26;;;;;;;7.78;2.00;;;;;;;21.39;100.00;101361.41;10463038;28;20033;-67
2023/08/04 16:31:27;;;;;;;3.67;1.15;;;;;;;21.93;100.00;101370.81;10464050;28;20040;-67
2023/08/04 16:36:27;;;;;;;3.50;0.70;;;;;;;23.43;100.00;101354.22;10463207;28;20479;-67
2023/08/04 16:41:30;;;;;;;3.58;1.25;;;;;;;24.21;100.00;101361.75;10456098;28;20396;-68
2023/08/04 16:46:30;;;;;;;2.00;0.98;;;;;;;23.70;100.00;101363.47;10453041;28;20106;-67
2023/08/04 16:51:31;;;;;;;3.70;0.80;;;;;;;22.22;100.00;101372.31;10463806;28;20110;-67
2023/08/04 16:56:32;;;;;;;3.35;0.85;;;;;;;20.79;100.00;101351.28;10459570;28;20044;-67
2023/08/04 17:01:32;;;;;;;3.35;0.88;;;;;;;20.12;100.00;101388.88;10461940;28;20071;-67
2023/08/04 17:06:33;;;;;;;4.47;0.98;;;;;;;20.17;100.00;101404.72;10462583;28;20574;-67
2023/08/04 17:11:33;;;;;;;3.28;1.00;;;;;;;20.26;100.00;101408.50;10461954;28;20408;-67
2023/08/04 17:16:34;;;;;;;2.65;0.77;;;;;;;19.88;100.00;101408.56;10438150;28;20524;-67
2023/08/04 17:21:34;;;;;;;4.95;0.90;;;;;;;19.31;100.00;101405.78;10410034;28;20045;-67
2023/08/04 17:26:35;;;;;;;4.60;1.10;;;;;;;19.08;100.00;101428.97;10439533;28;20056;-67
2023/08/04 17:31:35;;;;;;;1.65;0.98;;;;;;;18.49;100.00;101405.91;10452340;28;20033;-66
2023/08/04 17:36:36;;;;;;;3.95;1.20;;;;;;;18.66;100.00;101448.09;10459368;28;20501;-67
2023/08/04 17:41:36;;;;;;;2.60;1.08;;;;;;;18.79;100.00;101459.72;10458678;28;20523;-67
2023/08/04 17:46:37;;;;;;;3.13;1.30;;;;;;;18.78;100.00;101453.28;10459835;28;20049;-67
2023/08/04 17:51:37;;;;;;;5.32;1.35;;;;;;;18.70;100.00;101456.72;10460479;28;20037;-67
2023/08/04 17:56:38;;;;;;;5.47;1.48;;;;;;;18.47;100.00;101467.53;10461101;28;20067;-66
2023/08/04 18:01:39;;;;;;;4.13;1.30;;;;;;;18.21;100.00;101475.31;10460945;28;20032;-68
2023/08/04 18:06:39;;;;;;;2.63;1.38;;;;;;;17.98;100.00;101487.19;10457472;28;20041;-66
2023/08/04 18:11:40;;;;;;;4.60;1.33;;;;;;;17.89;100.00;101498.94;10454417;28;20053;-67
2023/08/04 18:16:40;;;;;;;5.20;1.40;;;;;;;17.88;100.00;101488.94;10444049;28;20057;-65
2023/08/04 18:21:41;;;;;;;6.75;1.80;;;;;;;17.87;100.00;101497.56;10459517;28;20044;-67
2023/08/04 18:26:41;;;;;;;6.95;1.25;;;;;;;17.83;100.00;101500.09;10461417;28;20044;-65
2023/08/04 18:31:41;;;;;;;4.30;1.42;;;;;;;17.69;100.00;101507.38;10469634;28;20056;-66
2023/08/04 18:36:42;;;;;;;6.35;1.58;;;;;;;17.58;100.00;101508.56;10464161;28;20044;-67
2023/08/04 18:41:42;;;;;;;3.72;1.23;;;;;;;17.51;100.00;101515.28;10456462;28;20047;-67
2023/08/04 18:46:43;;;;;;;4.03;1.40;;;;;;;17.40;100.00;101502.50;10470174;28;20038;-67
2023/08/04 18:51:43;;;;;;;4.43;1.20;;;;;;;17.26;100.00;101495.88;10480074;28;20037;-67
2023/08/04 18:56:44;;;;;;;1.88;1.10;;;;;;;17.24;100.00;101512.03;10478519;28;20048;-66
2023/08/04 19:01:44;;;;;;;6.43;1.45;;;;;;;17.10;100.00;101512.63;10468582;28;20603;-66
2023/08/04 19:06:45;;;;;;;4.78;1.27;;;;;;;16.89;100.00;101530.50;10457726;28;20500;-66
2023/08/04 19:11:45;;;;;;;3.92;1.50;;;;;;;16.68;100.00;101536.06;10437660;28;20068;-67
2023/08/04 19:16:46;;;;;;;3.75;1.60;;;;;;;16.53;100.00;101545.22;10456273;28;20033;-66
2023/08/04 19:21:47;;;;;;;5.07;1.35;;;;;;;16.41;100.00;101557.72;10454756;28;20060;-66
2023/08/04 19:26:47;;;;;;;5.35;2.00;;;;;;;16.33;100.00;101550.81;10456067;28;20037;-66
2023/08/04 19:31:48;;;;;;;5.00;1.80;;;;;;;16.21;100.00;101556.59;10453897;28;20045;-66
2023/08/04 19:36:49;;;;;;;5.30;1.73;;;;;;;16.05;100.00;101572.41;10454569;28;20382;-66
2023/08/04 19:41:49;;;;;;;4.80;1.73;;;;;;;15.93;100.00;101569.88;10453133;28;20045;-65
2023/08/04 19:46:49;;;;;;;7.15;2.30;;;;;;;15.87;100.00;101576.50;10454344;28;20128;-67
2023/08/04 19:51:50;;;;;;;3.95;1.75;;;;;;;15.87;100.00;101579.28;10455764;28;20485;-66
2023/08/04 19:56:53;;;;;;;4.43;1.80;;;;;;;15.90;100.00;101581.53;10431671;28;20087;-66
2023/08/04 20:01:55;;;;;;;5.90;1.58;;;;;;;15.93;100.00;101585.69;10415779;28;20057;-66
2023/08/04 20:06:56;;;;;;;9.65;3.38;;;;;;;15.96;100.00;101596.28;10401965;28;20093;-66
2023/08/04 20:11:56;;;;;;;2.83;1.23;;;;;;;15.93;100.00;101591.25;10414716;28;20516;-66
2023/08/04 20:16:57;;;;;;;4.57;1.65;;;;;;;15.87;100.00;101598.72;10414518;28;20045;-65
2023/08/04 20:21:57;;;;;;;5.32;2.00;;;;;;;15.83;100.00;101597.59;10415016;28;20045;-65
2023/08/04 20:26:57;;;;;;;7.30;2.08;;;;;;;15.72;100.00;101601.47;10409583;28;20060;-65
2023/08/04 20:31:58;;;;;;;7.18;1.92;;;;;;;15.42;100.00;101607.66;10407777;28;20061;-66
2023/08/04 20:36:58;;;;;;;8.30;2.60;;;;;;;14.85;100.00;101562.94;10432717;28;20052;-66
2023/08/04 20:41:59;;;;;;;4.20;2.33;;;;;;;14.84;100.00;101599.22;10464014;28;20048;-65
2023/08/04 20:46:59;;;;;;;10.25;3.00;;;;;;;14.62;100.00;101605.72;10417030;28;20036;-66
2023/08/04 20:52:00;;;;;;;3.70;2.55;;;;;;;14.45;100.00;101610.50;10453702;28;20060;-66
2023/08/04 20:57:00;;;;;;;6.85;3.47;;;;;;;14.26;100.00;101608.13;10452508;28;20037;-65
2023/08/04 21:02:01;;;;;;;8.80;2.63;;;;;;;14.09;100.00;101612.91;10468240;28;20041;-65
2023/08/04 21:07:02;;;;;;;6.90;2.78;;;;;;;14.05;100.00;101622.81;10466537;28;20037;-66
2023/08/04 21:12:03;;;;;;;5.22;2.38;;;;;;;14.05;100.00;101623.66;10470634;28;20029;-65
2023/08/04 21:17:04;;;;;;;9.57;2.80;;;;;;;14.11;100.00;101619.84;10472637;28;20041;-66
2023/08/04 21:22:05;;;;;;;6.88;2.42;;;;;;;14.18;100.00;101622.44;10476200;28;20041;-66
2023/08/04 21:27:05;;;;;;;7.10;3.08;;;;;;;14.24;100.00;101609.47;10462544;28;20048;-65
2023/08/04 21:32:06;;;;;;;5.07;2.33;;;;;;;14.20;100.00;101609.16;10459831;28;20045;-66
2023/08/04 21:37:06;;;;;;;5.63;2.95;;;;;;;14.47;100.00;101613.84;10460445;28;20037;-65
2023/08/04 21:42:07;;;;;;;6.97;2.53;;;;;;;14.59;100.00;101616.47;10457554;28;20049;-65
2023/08/04 21:47:07;;;;;;;4.38;2.92;;;;;;;14.63;100.00;101629.53;10456663;28;20048;-66
2023/08/04 21:52:08;;;;;;;4.20;1.90;;;;;;;14.68;100.00;101626.81;10461840;28;20041;-65
2023/08/04 21:57:09;;;;;;;9.25;2.28;;;;;;;14.76;100.00;101627.44;10447782;28;20394;-65
2023/08/04 22:02:09;;;;;;;5.70;2.47;;;;;;;14.76;100.00;101628.28;10442296;28;20071;-65
2023/08/04 22:07:09;;;;;;;5.72;2.08;;;;;;;14.81;100.00;101624.72;10447025;28;20221;-65
2023/08/04 22:12:10;;;;;;;4.88;1.90;;;;;;;14.84;100.00;101618.63;10456445;28;20051;-65
2023/08/04 22:17:10;;;;;;;6.60;2.30;;;;;;;14.86;100.00;101613.66;10459687;28;20037;-65
2023/08/04 22:22:11;;;;;;;7.40;2.70;;;;;;;14.90;100.00;101617.56;10458596;28;20041;-65
2023/08/04 22:27:13;;;;;;;6.75;2.47;;;;;;;14.93;100.00;101625.38;10457006;28;20041;-65
2023/08/04 22:32:14;;;;;;;6.15;3.20;;;;;;;14.94;100.00;101624.25;10453436;28;20042;-66
2023/08/04 22:37:14;;;;;;;8.60;3.35;;;;;;;14.97;100.00;101618.19;10453146;28;20048;-65
2023/08/04 22:42:15;;;;;;;5.93;3.08;;;;;;;14.99;100.00;101629.84;10458850;28;20612;-64
2023/08/04 22:47:16;;;;;;;5.00;3.28;;;;;;;14.97;100.00;101620.97;10458017;28;20033;-65